Aeroporto :
LOGIN :

Iscrizione | Disclaimer

   EN    FR    IT 

 










Sommario :    VFR   VFR Marginale   IFR   IFR Intensivo   IFR Molto Intensivo
Visibilità : 
Base nubi : 
>= 8 km
>= 3000ft
5 / 8 km
1000 / 3000 ft
1500m / 5 km
500 / 1000 ft
800 / 1500m
200 / 500 ft
< 800m
< 200 ft
Simboli :   Temporali  Nebbia  Neve Forte  Precipitazioni Forti  Vento > 20 kt
SIGMETs :   Varie  Temporali  Ghiacco  Turbolenza  Onda orograficha  Ceneri Vulcaniche







- Altitudine del aeroporto : 1090 ft
- Codice IATA : CFE
- Carte del aeroporto


LFLC - Clermont-Ferrand Auvergne

ULTIMO METAR :
  • 152100Z AUTO VRB02KT CAVOK 07/M06 Q1027 NOSIG

METARs OBSOLETI :
  • 152030Z AUTO VRB01KT CAVOK 06/M06 Q1027 NOSIG
  • 152000Z AUTO VRB02KT CAVOK 07/M06 Q1027 NOSIG
  • 151930Z AUTO 24002KT CAVOK 09/M06 Q1027 TEMPO 16010G20KT
  • 151900Z AUTO VRB03KT CAVOK 09/M06 Q1027 NOSIG
  • 151830Z AUTO 26002KT CAVOK 11/M05 Q1027 BECMG 16010G20KT

TAF TAF LFLC
Valido dal 15 a 21 ore il 16 a 21 ore UTC


152000Z 1521/1621 16010G20KT CAVOK
TEMPO 1521/1608 VRB03KT
BECMG 1614/1617 18006KT
ATIS : +33 4 73 62 74 38
Nessun NOTAM noto per questo aeroporto.



MetMap, La meteo Aeronautica in un colpo d'occhio ! - Copyright ORBIFLY Dicembre 2007 - Disclaimer

ORBIFLY MET'MAP TEAM :

Programmazione e sviluppo : Alexandra Zaïnal
Concezione e sviluppo : Baudouin d'Aumeries
Co-Programmazione e sviluppo : Marc-Olivier Méhu
Supporto tecnico e logistico : Manuel Goepfert
Aiuto per la traduzione : Arnaldo La Scala

Contatto : metmap@orbifly.com




FONTI E CREDITI :

   NOAA